createdAt,value
2023-04-16T00:00:11.622Z,2.22
2023-04-16T00:02:39.836Z,2.39
2023-04-16T00:05:09.016Z,2.27
2023-04-16T00:07:36.857Z,2.44
2023-04-16T00:10:05.388Z,2.36
2023-04-16T00:12:34.828Z,2.38
2023-04-16T00:15:02.677Z,2.17
2023-04-16T00:17:30.611Z,2.31
2023-04-16T00:19:58.591Z,1.50
2023-04-16T00:22:26.687Z,2.21
2023-04-16T00:24:54.633Z,2.16
2023-04-16T00:27:22.470Z,2.11
2023-04-16T00:29:51.820Z,2.05
2023-04-16T00:32:19.783Z,2.02
2023-04-16T00:34:47.635Z,2.00
2023-04-16T00:37:15.520Z,2.00
2023-04-16T00:39:43.457Z,1.95
2023-04-16T00:42:11.397Z,1.92
2023-04-16T00:44:39.523Z,1.46
2023-04-16T00:47:09.241Z,1.86
2023-04-16T00:49:37.468Z,1.70
2023-04-16T00:52:05.703Z,1.84
2023-04-16T00:54:33.920Z,1.82
2023-04-16T00:57:01.751Z,1.81
2023-04-16T00:59:30.478Z,1.71
2023-04-16T01:01:58.577Z,1.60
2023-04-16T01:04:29.819Z,1.73
2023-04-16T01:06:57.874Z,1.72
2023-04-16T01:09:25.801Z,1.72
2023-04-16T01:11:53.639Z,1.73
2023-04-16T01:14:21.539Z,1.71
2023-04-16T01:16:49.481Z,1.68
2023-04-16T01:19:17.326Z,1.54
2023-04-16T01:21:46.746Z,0.54
2023-04-16T01:24:14.778Z,1.52
2023-04-16T01:26:42.586Z,1.50
2023-04-16T01:29:10.774Z,1.50
2023-04-16T01:31:38.924Z,1.38
2023-04-16T01:34:06.859Z,1.45
2023-04-16T01:36:34.848Z,1.40
2023-04-16T01:39:04.505Z,1.20
2023-04-16T01:41:33.014Z,1.30
2023-04-16T01:44:01.021Z,1.26
2023-04-16T01:46:30.713Z,1.12
2023-04-16T01:48:58.903Z,1.21
2023-04-16T01:51:27.344Z,1.20
2023-04-16T01:53:56.077Z,1.19
2023-04-16T01:56:25.294Z,1.20
2023-04-16T01:58:53.700Z,1.04
2023-04-16T02:01:22.053Z,1.19
2023-04-16T02:03:50.235Z,1.09
2023-04-16T02:06:18.192Z,1.13
2023-04-16T02:08:46.275Z,1.08
2023-04-16T02:11:14.108Z,0.43
2023-04-16T02:13:43.430Z,1.01
2023-04-16T02:16:11.601Z,0.97
2023-04-16T02:18:39.451Z,0.95
2023-04-16T02:21:07.904Z,0.91
2023-04-16T02:23:36.128Z,0.81
2023-04-16T02:26:04.761Z,0.86
2023-04-16T02:28:32.665Z,0.85
2023-04-16T02:31:02.079Z,0.78
2023-04-16T02:33:31.925Z,0.76
2023-04-16T02:36:00.127Z,0.79
2023-04-16T02:38:28.109Z,0.68
2023-04-16T02:40:55.935Z,0.60
2023-04-16T02:43:23.948Z,0.75
2023-04-16T02:45:51.957Z,0.75
2023-04-16T02:48:21.177Z,0.78
2023-04-16T02:50:49.076Z,0.77
2023-04-16T02:53:17.094Z,0.74
2023-04-16T02:55:52.538Z,0.70
2023-04-16T02:58:20.992Z,0.65
2023-04-16T03:00:48.829Z,0.50
2023-04-16T03:03:16.693Z,0.55
2023-04-16T03:05:46.740Z,0.55
2023-04-16T03:08:14.583Z,0.51
2023-04-16T03:10:42.497Z,0.45
2023-04-16T03:13:10.687Z,0.49
2023-04-16T03:15:38.560Z,0.46
2023-04-16T03:18:06.444Z,0.44
2023-04-16T03:20:34.820Z,0.44
2023-04-16T03:23:04.004Z,0.45
2023-04-16T03:25:31.898Z,0.44
2023-04-16T03:27:59.844Z,0.39
2023-04-16T03:30:27.744Z,0.37
2023-04-16T03:32:55.828Z,0.36
2023-04-16T03:35:23.800Z,0.36
2023-04-16T03:37:51.824Z,0.27
2023-04-16T03:40:21.132Z,0.36
2023-04-16T03:42:51.459Z,0.33
2023-04-16T03:45:19.344Z,0.33
2023-04-16T03:47:52.610Z,0.37
2023-04-16T03:50:20.958Z,0.27
2023-04-16T03:52:49.506Z,0.40
2023-04-16T03:55:17.641Z,0.37
2023-04-16T03:57:46.836Z,0.41
2023-04-16T04:00:15.324Z,0.10
2023-04-16T04:02:43.432Z,0.43
2023-04-16T04:05:11.460Z,0.42
2023-04-16T04:07:39.614Z,0.40
2023-04-16T04:10:09.244Z,0.38
2023-04-16T04:12:37.119Z,0.39
2023-04-16T04:15:07.692Z,0.43
2023-04-16T04:17:35.771Z,0.46
2023-04-16T04:20:03.721Z,0.43
2023-04-16T04:22:31.864Z,-0.67
2023-04-16T04:24:59.818Z,0.39
2023-04-16T04:27:27.732Z,0.43
2023-04-16T04:29:55.651Z,0.33
2023-04-16T04:32:25.074Z,0.47
2023-04-16T04:34:53.014Z,0.48
2023-04-16T04:37:21.130Z,0.09
2023-04-16T04:39:49.150Z,0.57
2023-04-16T04:42:19.988Z,0.27
2023-04-16T04:44:48.271Z,0.67
2023-04-16T04:47:16.804Z,0.69
2023-04-16T04:49:46.012Z,0.73
2023-04-16T04:52:14.278Z,0.79
2023-04-16T04:54:42.312Z,0.80
2023-04-16T04:57:10.204Z,0.83
2023-04-16T04:59:38.236Z,0.89
2023-04-16T05:02:06.414Z,0.96
2023-04-16T05:04:34.403Z,1.02
2023-04-16T05:07:03.791Z,1.06
2023-04-16T05:09:31.821Z,1.10
2023-04-16T05:11:59.653Z,1.07
2023-04-16T05:14:27.558Z,1.22
2023-04-16T05:16:55.652Z,1.28
2023-04-16T05:19:23.554Z,1.32
2023-04-16T05:21:51.620Z,1.34
2023-04-16T05:24:21.076Z,1.41
2023-04-16T05:26:48.880Z,1.35
2023-04-16T05:29:16.791Z,1.53
2023-04-16T05:31:44.706Z,1.61
2023-04-16T05:34:12.573Z,1.70
2023-04-16T05:36:40.698Z,1.69
2023-04-16T05:39:09.020Z,1.84
2023-04-16T05:41:38.454Z,1.88
2023-04-16T05:44:06.740Z,1.89
2023-04-16T05:46:34.937Z,2.02
2023-04-16T05:49:02.891Z,2.09
2023-04-16T05:51:32.228Z,2.19
2023-04-16T05:54:00.440Z,2.27
2023-04-16T05:56:28.330Z,2.33
2023-04-16T05:58:57.707Z,2.04
2023-04-16T06:01:26.798Z,2.34
2023-04-16T06:03:54.866Z,2.53
2023-04-16T06:06:22.989Z,2.61
2023-04-16T06:08:50.923Z,2.44
2023-04-16T06:11:18.928Z,2.75
2023-04-16T06:13:46.863Z,2.83
2023-04-16T06:16:16.184Z,2.88
2023-04-16T06:18:44.089Z,2.98
2023-04-16T06:21:12.126Z,3.06
2023-04-16T06:23:39.976Z,3.17
2023-04-16T06:26:07.971Z,2.93
2023-04-16T06:28:35.883Z,3.21
2023-04-16T06:31:03.791Z,3.47
2023-04-16T06:33:33.278Z,3.56
2023-04-16T06:36:01.305Z,3.67
2023-04-16T06:38:29.167Z,3.76
2023-04-16T06:40:57.190Z,3.86
2023-04-16T06:43:25.253Z,3.96
2023-04-16T06:45:53.101Z,4.08
2023-04-16T06:48:20.998Z,4.22
2023-04-16T06:50:50.331Z,4.43
2023-04-16T06:53:18.182Z,4.47
2023-04-16T06:55:47.199Z,4.83
2023-04-16T06:58:15.150Z,4.88
2023-04-16T07:00:43.052Z,5.58
2023-04-16T07:03:11.060Z,6.07
2023-04-16T07:05:39.246Z,6.61
2023-04-16T07:08:08.659Z,7.29
2023-04-16T07:10:36.743Z,8.10
2023-04-16T07:13:04.722Z,8.76
2023-04-16T07:15:32.540Z,9.29
2023-04-16T07:18:00.570Z,9.73
2023-04-16T07:20:28.854Z,10.21
2023-04-16T07:22:56.761Z,10.53
2023-04-16T07:25:26.992Z,10.88
2023-04-16T07:27:54.936Z,11.29
2023-04-16T07:30:22.768Z,11.79
2023-04-16T07:32:51.922Z,12.12
2023-04-16T07:35:20.076Z,12.20
2023-04-16T07:37:47.900Z,12.50
2023-04-16T07:40:16.217Z,12.68
2023-04-16T07:42:45.918Z,12.96
2023-04-16T07:45:14.062Z,13.14
2023-04-16T07:47:42.057Z,13.39
2023-04-16T07:50:11.023Z,13.69
2023-04-16T07:52:41.342Z,13.94
2023-04-16T07:55:09.718Z,13.86
2023-04-16T07:57:38.081Z,14.14
2023-04-16T08:00:09.069Z,14.03
2023-04-16T08:02:37.841Z,13.95
2023-04-16T08:05:06.491Z,14.06
2023-04-16T08:07:34.891Z,13.78
2023-04-16T08:10:03.436Z,13.84
2023-04-16T08:12:31.500Z,14.46
2023-04-16T08:14:59.358Z,14.36
2023-04-16T08:17:29.758Z,15.08
2023-04-16T08:19:57.810Z,15.15
2023-04-16T08:22:26.406Z,15.27
2023-04-16T08:24:54.510Z,15.48
2023-04-16T08:27:22.483Z,15.69
2023-04-16T08:29:50.358Z,15.90
2023-04-16T08:32:18.503Z,16.08
2023-04-16T08:34:48.077Z,16.01
2023-04-16T08:37:15.982Z,16.26
2023-04-16T08:39:43.965Z,16.31
2023-04-16T08:42:15.388Z,16.32
2023-04-16T08:44:49.242Z,16.18
2023-04-16T08:47:17.918Z,16.42
2023-04-16T08:49:47.307Z,16.48
2023-04-16T08:52:20.455Z,16.62
2023-04-16T08:54:56.761Z,16.39
2023-04-16T08:57:28.922Z,16.55
2023-04-16T08:59:58.825Z,16.72
2023-04-16T09:02:27.549Z,16.63
2023-04-16T09:05:01.054Z,17.17
2023-04-16T09:07:30.917Z,17.35
2023-04-16T09:10:01.518Z,17.65
2023-04-16T09:12:29.499Z,17.60
2023-04-16T09:14:59.802Z,17.83
2023-04-16T09:17:28.461Z,18.17
2023-04-16T09:19:57.912Z,18.23
2023-04-16T09:22:25.921Z,18.39
2023-04-16T09:24:53.834Z,18.50
2023-04-16T09:27:25.467Z,18.47
2023-04-16T09:29:54.117Z,18.59
2023-04-16T09:32:27.763Z,18.54
2023-04-16T09:34:59.483Z,18.24
2023-04-16T09:37:29.859Z,18.00
2023-04-16T09:39:59.183Z,18.20
2023-04-16T09:42:28.891Z,18.72
2023-04-16T09:45:00.334Z,18.62
2023-04-16T09:47:41.285Z,18.93
2023-04-16T09:50:17.720Z,18.92
2023-04-16T09:52:50.045Z,19.01
2023-04-16T09:55:19.286Z,19.07
2023-04-16T09:57:47.163Z,19.10
2023-04-16T10:00:19.891Z,19.17
2023-04-16T10:02:50.038Z,19.30
2023-04-16T10:05:21.455Z,19.33
2023-04-16T10:07:49.952Z,19.48
2023-04-16T10:10:18.207Z,19.60
2023-04-16T10:12:47.416Z,19.70
2023-04-16T10:15:15.373Z,19.52
2023-04-16T10:17:44.503Z,19.65
2023-04-16T10:20:12.818Z,18.90
2023-04-16T10:22:43.061Z,19.56
2023-04-16T10:25:11.528Z,19.64
2023-04-16T10:27:40.777Z,19.66
2023-04-16T10:30:12.669Z,19.63
2023-04-16T10:32:42.039Z,19.74
2023-04-16T10:35:10.726Z,19.74
2023-04-16T10:37:39.179Z,19.42
2023-04-16T10:40:27.245Z,19.34
2023-04-16T10:42:56.755Z,19.54
2023-04-16T10:45:30.716Z,19.75
2023-04-16T10:47:58.997Z,19.87
2023-04-16T10:50:36.119Z,19.75
2023-04-16T10:53:20.080Z,20.01
2023-04-16T10:56:14.269Z,20.07
2023-04-16T10:58:42.535Z,20.01
2023-04-16T11:01:14.638Z,20.01
2023-04-16T11:03:46.316Z,19.84
2023-04-16T11:06:17.055Z,19.96
2023-04-16T11:08:54.610Z,20.07
2023-04-16T11:11:24.978Z,19.25
2023-04-16T11:13:57.481Z,20.21
2023-04-16T11:16:26.180Z,20.16
2023-04-16T11:18:56.692Z,20.05
2023-04-16T11:21:25.492Z,19.69
2023-04-16T11:23:54.578Z,19.52
2023-04-16T11:26:26.852Z,19.73
2023-04-16T11:28:56.275Z,19.99
2023-04-16T11:31:24.519Z,20.22
2023-04-16T11:33:54.130Z,20.13
2023-04-16T11:36:22.215Z,20.26
2023-04-16T11:38:50.096Z,20.63
2023-04-16T11:41:22.926Z,21.10
2023-04-16T11:43:52.272Z,21.28
2023-04-16T11:46:27.386Z,21.41
2023-04-16T11:48:56.800Z,21.61
2023-04-16T11:51:24.783Z,21.72
2023-04-16T11:53:55.321Z,21.60
2023-04-16T11:56:28.733Z,21.91
2023-04-16T11:59:12.108Z,22.02
2023-04-16T12:01:42.140Z,21.95
2023-04-16T12:04:10.645Z,21.76
2023-04-16T12:06:38.676Z,22.16
2023-04-16T12:09:25.108Z,22.63
2023-04-16T12:11:53.029Z,23.15
2023-04-16T12:14:22.568Z,23.40
2023-04-16T12:16:50.847Z,23.85
2023-04-16T12:19:19.225Z,23.85
2023-04-16T12:21:49.975Z,24.38
2023-04-16T12:24:20.841Z,24.39
2023-04-16T12:26:56.099Z,24.97
2023-04-16T12:29:28.835Z,24.91
2023-04-16T12:32:00.178Z,24.56
2023-04-16T12:34:47.940Z,25.48
2023-04-16T12:37:16.931Z,24.98
2023-04-16T12:39:46.341Z,24.99
2023-04-16T12:42:16.078Z,25.18
2023-04-16T12:44:45.841Z,24.89
2023-04-16T12:47:13.800Z,24.70
2023-04-16T12:49:41.634Z,24.38
2023-04-16T12:52:09.783Z,24.18
2023-04-16T12:54:37.628Z,24.63
2023-04-16T12:57:05.607Z,24.45
2023-04-16T12:59:33.847Z,24.86
2023-04-16T13:02:03.763Z,25.28
2023-04-16T13:04:32.011Z,25.74
2023-04-16T13:07:00.776Z,26.13
2023-04-16T13:09:31.939Z,26.03
2023-04-16T13:11:59.757Z,26.31
2023-04-16T13:14:27.888Z,26.45
2023-04-16T13:16:55.848Z,26.94
2023-04-16T13:19:25.065Z,27.21
2023-04-16T13:21:53.083Z,27.17
2023-04-16T13:24:21.080Z,26.69
2023-04-16T13:26:48.890Z,26.64
2023-04-16T13:29:16.886Z,26.82
2023-04-16T13:31:44.885Z,26.93
2023-04-16T13:34:12.784Z,26.89
2023-04-16T13:36:42.168Z,26.92
2023-04-16T13:39:11.597Z,26.90
2023-04-16T13:41:39.756Z,27.41
2023-04-16T13:44:07.992Z,27.72
2023-04-16T13:46:35.944Z,27.89
2023-04-16T13:49:03.988Z,27.86
2023-04-16T13:51:32.267Z,27.92
2023-04-16T13:54:01.544Z,28.04
2023-04-16T13:56:29.471Z,28.11
2023-04-16T13:58:57.520Z,28.03
2023-04-16T14:01:25.435Z,26.80
2023-04-16T14:03:53.711Z,27.71
2023-04-16T14:06:21.803Z,27.55
2023-04-16T14:08:49.640Z,27.10
2023-04-16T14:11:18.840Z,27.29
2023-04-16T14:13:46.983Z,26.53
2023-04-16T14:16:15.759Z,26.49
2023-04-16T14:18:43.648Z,25.70
2023-04-16T14:21:11.977Z,26.02
2023-04-16T14:23:39.838Z,26.28
2023-04-16T14:26:07.674Z,26.08
2023-04-16T14:28:37.336Z,25.48
2023-04-16T14:31:05.256Z,25.96
2023-04-16T14:33:33.406Z,26.25
2023-04-16T14:36:03.238Z,26.67
2023-04-16T14:38:32.056Z,26.83
2023-04-16T14:41:00.634Z,26.97
2023-04-16T14:43:28.961Z,27.18
2023-04-16T14:45:58.632Z,27.58
2023-04-16T14:48:26.590Z,27.13
2023-04-16T14:50:55.032Z,27.13
2023-04-16T14:53:24.533Z,27.10
2023-04-16T14:55:53.416Z,26.68
2023-04-16T14:58:22.077Z,27.25
2023-04-16T15:00:52.055Z,27.24
2023-04-16T15:03:21.689Z,27.05
2023-04-16T15:05:55.821Z,26.15
2023-04-16T15:08:23.928Z,24.86
2023-04-16T15:10:52.171Z,24.37
2023-04-16T15:13:20.577Z,24.18
2023-04-16T15:15:48.791Z,23.48
2023-04-16T15:18:17.485Z,23.81
2023-04-16T15:20:46.916Z,23.98
2023-04-16T15:23:14.804Z,24.37
2023-04-16T15:25:42.771Z,24.24
2023-04-16T15:28:10.682Z,23.74
2023-04-16T15:30:39.816Z,23.77
2023-04-16T15:33:08.025Z,23.98
2023-04-16T15:35:36.783Z,24.40
2023-04-16T15:38:06.088Z,24.41
2023-04-16T15:40:34.121Z,24.31
2023-04-16T15:43:02.172Z,24.04
2023-04-16T15:45:30.250Z,23.76
2023-04-16T15:47:58.244Z,23.57
2023-04-16T15:50:27.058Z,23.04
2023-04-16T15:52:55.036Z,22.58
2023-04-16T15:55:24.364Z,22.04
2023-04-16T15:57:52.922Z,21.15
2023-04-16T16:00:21.732Z,20.94
2023-04-16T16:02:49.840Z,21.02
2023-04-16T16:05:18.120Z,21.07
2023-04-16T16:07:46.460Z,21.20
2023-04-16T16:10:14.565Z,20.73
2023-04-16T16:12:45.140Z,20.47
2023-04-16T16:15:13.067Z,20.64
2023-04-16T16:17:41.393Z,20.67
2023-04-16T16:20:10.833Z,20.77
2023-04-16T16:22:39.209Z,20.91
2023-04-16T16:25:08.230Z,20.86
2023-04-16T16:27:36.670Z,20.74
2023-04-16T16:30:07.578Z,20.51
2023-04-16T16:32:35.998Z,20.55
2023-04-16T16:35:04.514Z,20.25
2023-04-16T16:37:32.407Z,19.98
2023-04-16T16:40:00.684Z,19.63
2023-04-16T16:42:28.769Z,19.25
2023-04-16T16:44:57.593Z,19.11
2023-04-16T16:47:30.509Z,18.87
2023-04-16T16:49:58.870Z,18.68
2023-04-16T16:52:28.130Z,18.25
2023-04-16T16:54:56.806Z,17.87
2023-04-16T16:57:25.058Z,17.29
2023-04-16T16:59:54.373Z,16.71
2023-04-16T17:02:22.955Z,15.74
2023-04-16T17:04:52.840Z,15.09
2023-04-16T17:07:20.957Z,14.76
2023-04-16T17:09:48.996Z,14.47
2023-04-16T17:12:16.841Z,14.12
2023-04-16T17:14:45.958Z,13.96
2023-04-16T17:17:13.857Z,13.83
2023-04-16T17:19:41.771Z,13.43
2023-04-16T17:22:11.354Z,12.86
2023-04-16T17:24:39.407Z,12.44
2023-04-16T17:27:07.251Z,11.94
2023-04-16T17:29:35.147Z,11.86
2023-04-16T17:32:04.934Z,11.62
2023-04-16T17:34:32.794Z,11.07
2023-04-16T17:37:00.883Z,11.11
2023-04-16T17:39:30.404Z,10.89
2023-04-16T17:41:58.689Z,10.55
2023-04-16T17:44:28.052Z,10.49
2023-04-16T17:46:56.012Z,10.61
2023-04-16T17:49:23.910Z,10.43
2023-04-16T17:51:52.017Z,10.40
2023-04-16T17:54:19.935Z,10.01
2023-04-16T17:56:49.214Z,10.13
2023-04-16T17:59:17.252Z,9.99
2023-04-16T18:01:45.545Z,9.90
2023-04-16T18:04:13.621Z,9.63
2023-04-16T18:06:42.002Z,9.71
2023-04-16T18:09:09.847Z,9.10
2023-04-16T18:11:37.693Z,8.57
2023-04-16T18:14:09.829Z,9.47
2023-04-16T18:16:38.098Z,9.42
2023-04-16T18:19:06.577Z,9.35
2023-04-16T18:21:35.485Z,9.33
2023-04-16T18:24:03.588Z,8.81
2023-04-16T18:26:35.687Z,9.04
2023-04-16T18:29:04.264Z,8.14
2023-04-16T18:31:33.579Z,8.91
2023-04-16T18:34:01.532Z,8.82
2023-04-16T18:36:30.084Z,8.64
2023-04-16T18:39:02.100Z,8.74
2023-04-16T18:41:30.964Z,8.75
2023-04-16T18:43:58.924Z,8.72
2023-04-16T18:46:27.534Z,7.75
2023-04-16T18:48:59.653Z,8.43
2023-04-16T18:51:27.582Z,8.08
2023-04-16T18:53:55.458Z,8.50
2023-04-16T18:56:23.522Z,8.47
2023-04-16T18:58:51.454Z,8.42
2023-04-16T19:01:19.375Z,8.24
2023-04-16T19:03:47.486Z,8.07
2023-04-16T19:06:16.869Z,7.49
2023-04-16T19:08:44.833Z,8.19
2023-04-16T19:11:12.994Z,8.12
2023-04-16T19:13:40.795Z,8.09
2023-04-16T19:16:11.645Z,8.06
2023-04-16T19:18:39.904Z,8.01
2023-04-16T19:21:10.041Z,7.82
2023-04-16T19:23:39.311Z,7.94
2023-04-16T19:26:07.177Z,7.86
2023-04-16T19:28:35.059Z,7.74
2023-04-16T19:31:03.121Z,7.21
2023-04-16T19:33:31.414Z,7.69
2023-04-16T19:36:00.258Z,7.54
2023-04-16T19:38:31.018Z,7.63
2023-04-16T19:41:00.320Z,7.59
2023-04-16T19:43:30.724Z,7.54
2023-04-16T19:45:59.081Z,6.93
2023-04-16T19:48:27.004Z,7.41
2023-04-16T19:50:54.820Z,7.20
2023-04-16T19:53:22.780Z,7.35
2023-04-16T19:55:50.707Z,7.32
2023-04-16T19:58:19.927Z,7.25
2023-04-16T20:00:47.873Z,7.02
2023-04-16T20:03:15.905Z,7.10
2023-04-16T20:05:43.758Z,7.05
2023-04-16T20:08:11.679Z,7.01
2023-04-16T20:10:39.564Z,6.91
2023-04-16T20:13:11.881Z,6.94
2023-04-16T20:15:41.429Z,6.89
2023-04-16T20:18:12.789Z,6.65
2023-04-16T20:20:41.540Z,6.67
2023-04-16T20:23:09.405Z,6.54
2023-04-16T20:25:42.052Z,6.39
2023-04-16T20:28:10.075Z,6.28
2023-04-16T20:30:39.526Z,6.27
2023-04-16T20:33:09.700Z,5.96
2023-04-16T20:35:38.134Z,6.35
2023-04-16T20:38:06.027Z,6.31
2023-04-16T20:40:34.186Z,6.11
2023-04-16T20:43:02.008Z,6.24
2023-04-16T20:45:32.515Z,5.62
2023-04-16T20:48:00.559Z,6.20
2023-04-16T20:50:29.817Z,6.18
2023-04-16T20:52:58.356Z,6.16
2023-04-16T20:55:26.981Z,5.94
2023-04-16T20:57:54.925Z,6.03
2023-04-16T21:00:23.227Z,5.98
2023-04-16T21:02:53.677Z,5.93
2023-04-16T21:05:21.825Z,5.85
2023-04-16T21:07:51.014Z,5.77
2023-04-16T21:10:20.369Z,5.73
2023-04-16T21:12:48.393Z,5.65
2023-04-16T21:15:16.475Z,5.26
2023-04-16T21:17:44.502Z,5.33
2023-04-16T21:20:14.067Z,5.53
2023-04-16T21:22:42.054Z,5.46
2023-04-16T21:25:11.767Z,5.36
2023-04-16T21:27:39.616Z,4.78
2023-04-16T21:30:09.395Z,5.23
2023-04-16T21:32:37.465Z,5.10
2023-04-16T21:35:06.098Z,4.56
2023-04-16T21:37:34.297Z,5.22
2023-04-16T21:40:02.396Z,5.19
2023-04-16T21:42:32.633Z,5.03
2023-04-16T21:45:00.967Z,5.01
2023-04-16T21:47:28.974Z,4.98
2023-04-16T21:49:56.848Z,4.58
2023-04-16T21:52:24.804Z,4.75
2023-04-16T21:54:52.843Z,4.87
2023-04-16T21:57:20.717Z,4.84
2023-04-16T21:59:50.243Z,4.48
2023-04-16T22:02:18.384Z,4.35
2023-04-16T22:04:46.389Z,4.70
2023-04-16T22:07:16.986Z,4.73
2023-04-16T22:09:45.035Z,4.07
2023-04-16T22:12:12.895Z,4.60
2023-04-16T22:14:49.199Z,4.56
2023-04-16T22:17:29.466Z,4.50
2023-04-16T22:20:00.780Z,4.49
2023-04-16T22:22:28.844Z,4.06
2023-04-16T22:24:56.812Z,4.33
2023-04-16T22:27:24.919Z,4.41
2023-04-16T22:29:52.850Z,4.34
2023-04-16T22:32:20.857Z,4.32
2023-04-16T22:34:50.664Z,4.28
2023-04-16T22:37:18.796Z,4.28
2023-04-16T22:39:46.732Z,4.27
2023-04-16T22:42:14.902Z,4.23
2023-04-16T22:44:42.854Z,3.66
2023-04-16T22:47:10.793Z,3.82
2023-04-16T22:49:38.827Z,4.08
2023-04-16T22:52:08.107Z,3.89
2023-04-16T22:54:35.941Z,3.97
2023-04-16T22:57:03.961Z,3.89
2023-04-16T22:59:32.272Z,3.80
2023-04-16T23:02:00.192Z,3.94
2023-04-16T23:04:28.428Z,3.79
2023-04-16T23:06:56.942Z,3.82
2023-04-16T23:09:26.163Z,3.79
2023-04-16T23:11:54.211Z,3.80
2023-04-16T23:14:22.374Z,3.78
2023-04-16T23:16:50.353Z,3.72
2023-04-16T23:19:18.509Z,3.67
2023-04-16T23:21:46.368Z,3.66
2023-04-16T23:24:14.189Z,3.48
2023-04-16T23:26:43.603Z,3.52
2023-04-16T23:29:11.647Z,3.41
2023-04-16T23:31:39.636Z,3.18
2023-04-16T23:34:07.820Z,3.38
2023-04-16T23:36:35.653Z,3.03
2023-04-16T23:39:03.526Z,3.40
2023-04-16T23:41:31.711Z,3.41
2023-04-16T23:44:00.901Z,2.85
2023-04-16T23:46:30.083Z,2.95
2023-04-16T23:48:58.199Z,3.32
2023-04-16T23:51:26.302Z,3.26
2023-04-16T23:53:54.172Z,3.22
2023-04-16T23:56:22.342Z,3.21
2023-04-16T23:58:50.227Z,3.03
